dzomba

(16 days until passive. 6 games in recent 30 days.)
K Footpad

Croatia

Rank Rating Percent Wins Losses Played Aver.P W/L/T Streak Sportsmanship Revoked Games
21 1573   (1577 / 1372) 45% 23 28 51 20 / -13 / 1.43 2  (8 / -7) 4  (53% / 96%: 4 / 4 / 4) 2% (0 / 0 / 1)
Title Level XP Next Lvl Have
Peasant 4 62.5 65 96%
Contact me to play!
Mail email ICQ AIM MSN Jabber Jabber
dzomba (at) net (dot) hr n/a n/a n/a

Recent Games

Reported Winner Loser W Rating L Rating W Rank L Rank NW Rank NL Rank Feedback Replay Game Detail
2018-09-04 15:44:24dzombaMeota1573 (15)1471p (-29)220210- / 4-1NoDetails
2018-09-02 15:52:06dzombaflyswatter1558 (17)1556 (-17)2302324- / 4-1NoDetails
2018-09-01 07:37:57Cackfienddzomba2419 (1)1541 (-2)0251233 / 2 W28Download (28)Details
2018-08-30 18:14:42Xplorerdzomba1696 (13)1543 (-13)202519255 / 5 W41Download (41)Details
2018-08-24 14:55:24Diggydzomba1928 (6)1556 (-8)102610264 / 5 W-1NoDetails
2018-08-23 17:45:38peanutdzomba1704 (13)1564 (-13)202520264 / 5 W32Download (32)Details
2018-08-19 16:28:47dzombapeanut1577 (19)1667 (-19)27212621- / 4-1NoDetails
2018-08-18 07:04:20dzombaSantiago-zx1558 (13)1396p (-26)260260- / 5-1NoDetails
2018-08-15 16:06:06Weiming_Liudzomba1926 (6)1545 (-8)928928- / -38Download (38)Details
2018-08-15 15:30:21dzombaTallin1553 (15)1470p (-30)280280- / 4-1NoDetails
2018-08-12 06:25:55dzombaSantiago-zx1538 (14)1422p (-29)300280- / 5-1NoDetails
2018-08-11 05:59:14dzombaUpToU1524 (14)1392p (-28)310300- / 5-1NoDetails
2018-08-07 15:16:59Bandolero**dzomba1480p (35)1506 (-4)029030- / 2 W-1NoDetails
2018-08-05 15:35:04dzombaDescacharrado1510 (16)1468p (-32)290280- / 5-1NoDetails
2018-08-05 07:24:59dzombaPrismaticism1494 (17)1467p (-33)2902902 / 4 L-1NoDetails
2018-08-04 04:51:41dzombaOdineye1477 (10)1191 (-10)280280- / 4-1NoDetails
2018-08-03 16:34:36dzombaYesnt1467 (16)1432p (-33)280280- / 5-1NoDetails
2018-08-03 15:45:12dzombaYesnt1451 (18)1465p (-35)280280- / 5-1NoDetails
2018-07-29 05:39:36LeadFoxdzomba1666 (11)1433 (-11)192619263 / 3 W71Download (71)Details
2018-07-28 16:26:41Superbeeredzomba1502 (15)1444 (-15)252625265 / 5 W48Download (48)Details
2018-07-28 09:28:10LeadFoxdzomba1655 (12)1459 (-12)192619263 / 3 W49Download (49)Details
2018-07-28 07:53:15dzombaCrimson_Conure1471 (16)1434 (-16)262726275 / 5 L-1NoDetails
2018-07-26 19:24:54dzombaTalos1455 (23)1697p (-45)2702704 / 4 L-1NoDetails
2018-07-26 11:03:51panicmanicdzomba1705 (10)1432 (-10)162716274 / -42Download (42)Details
2018-07-26 09:44:36dzombaCrimson_Conure1442 (18)1493p (-37)2702705 / 5 L53Download (53)Details
2018-07-26 08:29:39Crimson_Conuredzomba1530p (29)1424 (-4)0270274 / 5 W50Download (50)Details
2018-07-24 09:35:50dzombahowwitty1428 (16)1399 (-16)3003031- / 5-1NoDetails
2018-07-23 14:41:45dzombaaleantalex1412 (20)1515p (-39)290290- / 3-1NoDetails
2018-07-23 10:16:56dzombaSuperbeere1392 (20)1547 (-20)292429265 / 5 L-1NoDetails
2018-07-23 07:59:50Crimson_Conuredzomba1483p (28)1372 (-4)0290295 / 5 W48Download (48)Details

Opposition

Different opponents: 32 || Average games/opponent: 1.59 || Total inflation: 140 || Games vs overrated: 31% || Games vs underrated: 33%
Name Elo Last vs Infl E. Gain E. Avr. E. W. E. L. Games G % Ovr % Udr % Win W % Loss L %
JWDStudent15601383-82-68-22.7 6836067 00 3100
Mathuzalem1461146103333 331200 1100 00
food4bots1512143811-30-30 30121000 00 1100
EternalDestroyer15941417-44-31-15.5 3124050 00 2100
Zinnsoldat1632163644242 42121000 1100 00
Orbis1449144903333 331200 1100 00
Superbeere15151444-149-47-7.8 50976121783 233.3 466.7
MYFH18381430-23-17-17 17120100 00 1100
aleantalex1515151552134.3 20736670 133.3 266.7
ForPeace1855140521-7-7 7121000 00 1100
MLY1464146401818 181200 1100 00
ubw17181397-34-20-10 20240100 00 2100
LeadFox16661433-46-34-11.3 3436067 00 3100
MasterBao18181376-4-7-7 7120100 00 1100
Crimson_Conure14071434312266.5 348481000 250 250
howwitty1399139901616 161200 1100 00
panicmanic17211432-16-10-10 10120100 00 1100
Talos1697169702323 231200 1100 00
Yesnt14321432333417 3424500 2100 00
Odineye1191119101010 101200 1100 00
Prismaticism1467146701717 171200 1100 00
Descacharrado14381468301616 16121000 1100 00
UpToU1392139201414 141200 1100 00
Santiago-zx13961396262713.5 2724500 2100 00
Tallin1470147001515 151200 1100 00
Weiming_Liu19291545-3-8-8 8120100 00 1100
peanut167315642563 1913245050 150 150
Diggy192215566-8-8 8121000 00 1100
Xplorer1675154321-13-13 13121000 00 1100
Cackfiend241915410-2-2 21200 00 1100
flyswatter1556155601717 171200 1100 00
Meota1471147101515 151200 1100 00

Graph

the ladder is not in any way associated with the official wesnoth forum, it's moderators and/or the developers of Wesnoth.
dupe check / rss / powered by Gaming Ladder 191 / to-do
Maintained with care by Drupal Developer Greg Boggs.

contact: Message Cackfiend on Ladder Forum

2018-09-19 01:24 UTC | 0.32919sec.